sensor_id;sensor_type;location;lat;lon;timestamp;pressure;altitude;pressure_sealevel;temperature;humidity
19023;BME280;35226;48.606;8.858;2023-05-25T00:00:27;96624.34;;;8.54;100.00
19023;BME280;35226;48.606;8.858;2023-05-25T00:02:53;96633.31;;;8.59;100.00
19023;BME280;35226;48.606;8.858;2023-05-25T00:05:19;96631.78;;;8.58;100.00
19023;BME280;35226;48.606;8.858;2023-05-25T00:07:46;96627.75;;;8.62;100.00
19023;BME280;35226;48.606;8.858;2023-05-25T00:10:11;96632.13;;;8.60;100.00
19023;BME280;35226;48.606;8.858;2023-05-25T00:12:37;96634.88;;;8.60;100.00
19023;BME280;35226;48.606;8.858;2023-05-25T00:15:06;96633.25;;;8.62;100.00
19023;BME280;35226;48.606;8.858;2023-05-25T00:17:32;96638.06;;;8.58;100.00
19023;BME280;35226;48.606;8.858;2023-05-25T00:19:58;96627.47;;;8.57;100.00
19023;BME280;35226;48.606;8.858;2023-05-25T00:22:35;96635.72;;;8.57;100.00
19023;BME280;35226;48.606;8.858;2023-05-25T00:25:04;96629.38;;;8.60;100.00
19023;BME280;35226;48.606;8.858;2023-05-25T00:27:30;96630.94;;;8.61;100.00
19023;BME280;35226;48.606;8.858;2023-05-25T00:29:57;96622.69;;;8.61;100.00
19023;BME280;35226;48.606;8.858;2023-05-25T00:32:22;96624.97;;;8.62;100.00
19023;BME280;35226;48.606;8.858;2023-05-25T00:34:48;96626.06;;;8.68;100.00
19023;BME280;35226;48.606;8.858;2023-05-25T00:37:13;96622.75;;;8.77;100.00
19023;BME280;35226;48.606;8.858;2023-05-25T00:39:39;96619.16;;;8.80;100.00
19023;BME280;35226;48.606;8.858;2023-05-25T00:42:06;96625.84;;;8.79;100.00
19023;BME280;35226;48.606;8.858;2023-05-25T00:44:32;96622.47;;;8.71;100.00
19023;BME280;35226;48.606;8.858;2023-05-25T00:46:58;96614.63;;;8.70;100.00
19023;BME280;35226;48.606;8.858;2023-05-25T00:49:24;96622.88;;;8.70;100.00
19023;BME280;35226;48.606;8.858;2023-05-25T00:51:51;96624.88;;;8.69;100.00
19023;BME280;35226;48.606;8.858;2023-05-25T00:54:17;96620.91;;;8.70;100.00
19023;BME280;35226;48.606;8.858;2023-05-25T00:56:46;96622.13;;;8.69;100.00
19023;BME280;35226;48.606;8.858;2023-05-25T00:59:26;96617.03;;;8.68;100.00
19023;BME280;35226;48.606;8.858;2023-05-25T01:01:54;96623.38;;;8.65;100.00
19023;BME280;35226;48.606;8.858;2023-05-25T01:04:20;96621.34;;;8.69;100.00
19023;BME280;35226;48.606;8.858;2023-05-25T01:06:48;96616.66;;;8.66;100.00
19023;BME280;35226;48.606;8.858;2023-05-25T01:09:16;96617.03;;;8.68;100.00
19023;BME280;35226;48.606;8.858;2023-05-25T01:11:47;96618.16;;;8.70;100.00
19023;BME280;35226;48.606;8.858;2023-05-25T01:14:17;96615.41;;;8.70;100.00
19023;BME280;35226;48.606;8.858;2023-05-25T01:16:43;96621.59;;;8.74;100.00
19023;BME280;35226;48.606;8.858;2023-05-25T01:19:09;96611.00;;;8.73;100.00
19023;BME280;35226;48.606;8.858;2023-05-25T01:21:59;96609.38;;;8.75;100.00
19023;BME280;35226;48.606;8.858;2023-05-25T01:24:45;96606.56;;;8.79;100.00
19023;BME280;35226;48.606;8.858;2023-05-25T01:27:22;96609.53;;;8.88;100.00
19023;BME280;35226;48.606;8.858;2023-05-25T01:29:49;96607.91;;;8.90;100.00
19023;BME280;35226;48.606;8.858;2023-05-25T01:32:16;96596.91;;;8.90;100.00
19023;BME280;35226;48.606;8.858;2023-05-25T01:34:44;96602.75;;;8.93;100.00
19023;BME280;35226;48.606;8.858;2023-05-25T01:37:10;96605.78;;;8.98;100.00
19023;BME280;35226;48.606;8.858;2023-05-25T01:39:41;96611.97;;;9.02;100.00
19023;BME280;35226;48.606;8.858;2023-05-25T01:42:06;96619.41;;;9.05;100.00
19023;BME280;35226;48.606;8.858;2023-05-25T01:44:33;96615.47;;;9.06;100.00
19023;BME280;35226;48.606;8.858;2023-05-25T01:47:06;96611.50;;;9.07;100.00
19023;BME280;35226;48.606;8.858;2023-05-25T01:50:03;96618.56;;;9.08;100.00
19023;BME280;35226;48.606;8.858;2023-05-25T01:52:31;96618.63;;;9.05;100.00
19023;BME280;35226;48.606;8.858;2023-05-25T01:55:19;96614.31;;;9.04;100.00
19023;BME280;35226;48.606;8.858;2023-05-25T01:57:49;96613.53;;;9.03;100.00
19023;BME280;35226;48.606;8.858;2023-05-25T02:00:16;96611.97;;;9.02;100.00
19023;BME280;35226;48.606;8.858;2023-05-25T02:02:45;96615.19;;;9.01;100.00
19023;BME280;35226;48.606;8.858;2023-05-25T02:05:12;96613.63;;;9.00;100.00
19023;BME280;35226;48.606;8.858;2023-05-25T02:07:38;96620.75;;;8.97;100.00
19023;BME280;35226;48.606;8.858;2023-05-25T02:10:04;96609.75;;;8.97;100.00
19023;BME280;35226;48.606;8.858;2023-05-25T02:12:30;96609.91;;;8.90;100.00
19023;BME280;35226;48.606;8.858;2023-05-25T02:14:56;96608.59;;;8.95;100.00
19023;BME280;35226;48.606;8.858;2023-05-25T02:17:22;96600.56;;;8.84;100.00
19023;BME280;35226;48.606;8.858;2023-05-25T02:19:52;96596.19;;;8.86;100.00
19023;BME280;35226;48.606;8.858;2023-05-25T02:22:19;96588.69;;;8.87;100.00
19023;BME280;35226;48.606;8.858;2023-05-25T02:24:45;96586.88;;;8.80;100.00
19023;BME280;35226;48.606;8.858;2023-05-25T02:27:11;96588.19;;;8.72;100.00
19023;BME280;35226;48.606;8.858;2023-05-25T02:29:37;96594.16;;;8.71;100.00
19023;BME280;35226;48.606;8.858;2023-05-25T02:32:03;96601.97;;;8.72;100.00
19023;BME280;35226;48.606;8.858;2023-05-25T02:34:29;96590.94;;;8.72;100.00
19023;BME280;35226;48.606;8.858;2023-05-25T02:36:55;96594.47;;;8.73;100.00
19023;BME280;35226;48.606;8.858;2023-05-25T02:39:21;96596.53;;;8.69;100.00
19023;BME280;35226;48.606;8.858;2023-05-25T02:41:46;96586.50;;;8.59;100.00
19023;BME280;35226;48.606;8.858;2023-05-25T02:44:12;96587.72;;;8.58;100.00
19023;BME280;35226;48.606;8.858;2023-05-25T02:46:38;96588.53;;;8.54;100.00
19023;BME280;35226;48.606;8.858;2023-05-25T02:49:04;96594.56;;;8.49;100.00
19023;BME280;35226;48.606;8.858;2023-05-25T02:51:30;96598.50;;;8.48;100.00
19023;BME280;35226;48.606;8.858;2023-05-25T02:53:58;96600.53;;;8.44;100.00
19023;BME280;35226;48.606;8.858;2023-05-25T02:56:24;96598.22;;;8.43;100.00
19023;BME280;35226;48.606;8.858;2023-05-25T02:58:52;96600.69;;;8.37;100.00
19023;BME280;35226;48.606;8.858;2023-05-25T03:01:38;96595.69;;;8.32;100.00
19023;BME280;35226;48.606;8.858;2023-05-25T03:04:05;96596.91;;;8.28;100.00
19023;BME280;35226;48.606;8.858;2023-05-25T03:06:35;96597.66;;;8.28;100.00
19023;BME280;35226;48.606;8.858;2023-05-25T03:09:07;96597.72;;;8.25;100.00
19023;BME280;35226;48.606;8.858;2023-05-25T03:11:33;96597.81;;;8.21;100.00
19023;BME280;35226;48.606;8.858;2023-05-25T03:32:59;96615.94;;;7.95;100.00
19023;BME280;35226;48.606;8.858;2023-05-25T03:35:31;96614.38;;;7.94;100.00
19023;BME280;35226;48.606;8.858;2023-05-25T03:37:56;96620.66;;;7.95;100.00
19023;BME280;35226;48.606;8.858;2023-05-25T03:40:22;96615.56;;;7.93;100.00
19023;BME280;35226;48.606;8.858;2023-05-25T03:42:47;96621.13;;;7.90;100.00
19023;BME280;35226;48.606;8.858;2023-05-25T03:45:13;96617.59;;;7.89;100.00
19023;BME280;35226;48.606;8.858;2023-05-25T03:47:39;96620.78;;;7.88;100.00
19023;BME280;35226;48.606;8.858;2023-05-25T03:50:06;96615.75;;;7.83;100.00
19023;BME280;35226;48.606;8.858;2023-05-25T03:52:32;96609.94;;;7.77;100.00
19023;BME280;35226;48.606;8.858;2023-05-25T03:54:57;96607.69;;;7.72;100.00
19023;BME280;35226;48.606;8.858;2023-05-25T03:57:23;96614.28;;;7.74;100.00
19023;BME280;35226;48.606;8.858;2023-05-25T03:59:50;96625.00;;;7.69;100.00
19023;BME280;35226;48.606;8.858;2023-05-25T04:02:15;96618.72;;;7.68;100.00
19023;BME280;35226;48.606;8.858;2023-05-25T04:04:41;96628.16;;;7.67;100.00
19023;BME280;35226;48.606;8.858;2023-05-25T04:07:07;96623.44;;;7.68;100.00
19023;BME280;35226;48.606;8.858;2023-05-25T04:09:32;96620.28;;;7.69;100.00
19023;BME280;35226;48.606;8.858;2023-05-25T04:11:58;96628.50;;;7.73;100.00
19023;BME280;35226;48.606;8.858;2023-05-25T04:14:23;96631.56;;;7.75;100.00
19023;BME280;35226;48.606;8.858;2023-05-25T04:16:49;96628.41;;;7.76;100.00
19023;BME280;35226;48.606;8.858;2023-05-25T04:19:16;96624.84;;;7.79;100.00
19023;BME280;35226;48.606;8.858;2023-05-25T04:21:41;96631.41;;;7.86;100.00
19023;BME280;35226;48.606;8.858;2023-05-25T04:29:28;96631.66;;;7.95;100.00
19023;BME280;35226;48.606;8.858;2023-05-25T04:32:02;96633.56;;;7.98;100.00
19023;BME280;35226;48.606;8.858;2023-05-25T04:37:16;96630.28;;;8.06;100.00
19023;BME280;35226;48.606;8.858;2023-05-25T04:39:41;96636.19;;;8.05;100.00
19023;BME280;35226;48.606;8.858;2023-05-25T04:42:07;96627.94;;;8.05;100.00
19023;BME280;35226;48.606;8.858;2023-05-25T04:44:33;96620.09;;;8.03;100.00
19023;BME280;35226;48.606;8.858;2023-05-25T04:47:00;96617.31;;;8.07;100.00
19023;BME280;35226;48.606;8.858;2023-05-25T04:49:31;96620.78;;;8.11;100.00
19023;BME280;35226;48.606;8.858;2023-05-25T04:51:58;96623.03;;;8.16;100.00
19023;BME280;35226;48.606;8.858;2023-05-25T04:57:08;96626.13;;;8.22;100.00
19023;BME280;35226;48.606;8.858;2023-05-25T04:59:34;96629.56;;;8.26;100.00
19023;BME280;35226;48.606;8.858;2023-05-25T05:02:00;96626.88;;;8.22;100.00
19023;BME280;35226;48.606;8.858;2023-05-25T05:04:25;96631.47;;;8.29;100.00
19023;BME280;35226;48.606;8.858;2023-05-25T05:06:52;96633.00;;;8.33;100.00
19023;BME280;35226;48.606;8.858;2023-05-25T05:09:22;96638.38;;;8.40;100.00
19023;BME280;35226;48.606;8.858;2023-05-25T05:11:47;96643.03;;;8.43;100.00
19023;BME280;35226;48.606;8.858;2023-05-25T05:14:13;96651.53;;;8.52;100.00
19023;BME280;35226;48.606;8.858;2023-05-25T05:16:41;96648.72;;;8.56;100.00
19023;BME280;35226;48.606;8.858;2023-05-25T05:19:07;96650.75;;;8.52;100.00
19023;BME280;35226;48.606;8.858;2023-05-25T05:21:33;96666.94;;;8.50;100.00
19023;BME280;35226;48.606;8.858;2023-05-25T05:24:00;96673.13;;;8.54;100.00
19023;BME280;35226;48.606;8.858;2023-05-25T05:26:25;96673.31;;;8.67;100.00
19023;BME280;35226;48.606;8.858;2023-05-25T05:28:52;96675.91;;;8.74;100.00
19023;BME280;35226;48.606;8.858;2023-05-25T05:31:18;96676.28;;;8.76;100.00
19023;BME280;35226;48.606;8.858;2023-05-25T05:33:44;96675.44;;;8.79;100.00
19023;BME280;35226;48.606;8.858;2023-05-25T05:36:10;96680.75;;;8.89;100.00
19023;BME280;35226;48.606;8.858;2023-05-25T05:38:38;96686.75;;;8.84;100.00
19023;BME280;35226;48.606;8.858;2023-05-25T05:41:06;96691.78;;;8.89;100.00
19023;BME280;35226;48.606;8.858;2023-05-25T05:43:41;96689.94;;;9.03;100.00
19023;BME280;35226;48.606;8.858;2023-05-25T05:46:11;96686.41;;;9.02;100.00
19023;BME280;35226;48.606;8.858;2023-05-25T05:48:38;96689.50;;;9.04;100.00
19023;BME280;35226;48.606;8.858;2023-05-25T05:51:04;96691.00;;;9.09;100.00
19023;BME280;35226;48.606;8.858;2023-05-25T05:53:31;96691.28;;;9.14;100.00
19023;BME280;35226;48.606;8.858;2023-05-25T05:55:57;96696.00;;;9.34;100.00
19023;BME280;35226;48.606;8.858;2023-05-25T05:58:24;96697.91;;;9.37;100.00
19023;BME280;35226;48.606;8.858;2023-05-25T06:00:55;96697.69;;;9.47;100.00
19023;BME280;35226;48.606;8.858;2023-05-25T06:03:21;96693.75;;;9.48;100.00
19023;BME280;35226;48.606;8.858;2023-05-25T06:05:47;96698.50;;;9.64;100.00
19023;BME280;35226;48.606;8.858;2023-05-25T06:08:13;96704.66;;;9.72;100.00
19023;BME280;35226;48.606;8.858;2023-05-25T06:10:39;96701.66;;;9.82;100.00
19023;BME280;35226;48.606;8.858;2023-05-25T06:13:06;96707.94;;;9.83;100.00
19023;BME280;35226;48.606;8.858;2023-05-25T06:15:35;96712.09;;;9.91;100.00
19023;BME280;35226;48.606;8.858;2023-05-25T06:18:05;96715.91;;;9.97;100.00
19023;BME280;35226;48.606;8.858;2023-05-25T06:20:31;96711.78;;;10.05;100.00
19023;BME280;35226;48.606;8.858;2023-05-25T06:22:57;96711.25;;;10.10;100.00
19023;BME280;35226;48.606;8.858;2023-05-25T06:25:22;96716.63;;;10.17;100.00
19023;BME280;35226;48.606;8.858;2023-05-25T06:27:48;96721.31;;;10.20;100.00
19023;BME280;35226;48.606;8.858;2023-05-25T06:30:14;96718.72;;;10.29;100.00
19023;BME280;35226;48.606;8.858;2023-05-25T06:32:40;96720.44;;;10.39;100.00
19023;BME280;35226;48.606;8.858;2023-05-25T06:35:07;96724.41;;;10.38;100.00
19023;BME280;35226;48.606;8.858;2023-05-25T06:37:34;96732.38;;;10.53;100.00
19023;BME280;35226;48.606;8.858;2023-05-25T06:40:03;96728.31;;;10.57;100.00
19023;BME280;35226;48.606;8.858;2023-05-25T06:42:30;96721.72;;;10.67;100.00
19023;BME280;35226;48.606;8.858;2023-05-25T06:44:56;96724.16;;;10.65;100.00
19023;BME280;35226;48.606;8.858;2023-05-25T06:47:24;96726.97;;;10.78;100.00
19023;BME280;35226;48.606;8.858;2023-05-25T06:49:49;96726.19;;;10.77;100.00
19023;BME280;35226;48.606;8.858;2023-05-25T06:52:15;96720.25;;;11.08;100.00
19023;BME280;35226;48.606;8.858;2023-05-25T06:54:40;96723.03;;;11.08;100.00
19023;BME280;35226;48.606;8.858;2023-05-25T06:57:06;96717.41;;;11.11;100.00
19023;BME280;35226;48.606;8.858;2023-05-25T06:59:32;96716.47;;;11.31;100.00
19023;BME280;35226;48.606;8.858;2023-05-25T07:01:58;96712.41;;;11.35;100.00
19023;BME280;35226;48.606;8.858;2023-05-25T07:04:24;96718.03;;;11.32;100.00
19023;BME280;35226;48.606;8.858;2023-05-25T07:06:50;96717.78;;;11.55;100.00
19023;BME280;35226;48.606;8.858;2023-05-25T07:09:16;96721.38;;;11.39;100.00
19023;BME280;35226;48.606;8.858;2023-05-25T07:11:42;96715.22;;;11.61;100.00
19023;BME280;35226;48.606;8.858;2023-05-25T07:14:07;96724.25;;;11.77;100.00
19023;BME280;35226;48.606;8.858;2023-05-25T07:16:33;96718.94;;;11.83;100.00
19023;BME280;35226;48.606;8.858;2023-05-25T07:18:58;96727.03;;;11.90;100.00
19023;BME280;35226;48.606;8.858;2023-05-25T07:21:24;96734.44;;;12.06;100.00
19023;BME280;35226;48.606;8.858;2023-05-25T07:23:50;96732.91;;;12.05;100.00
19023;BME280;35226;48.606;8.858;2023-05-25T07:26:15;96729.81;;;12.15;100.00
19023;BME280;35226;48.606;8.858;2023-05-25T07:28:41;96734.03;;;12.20;100.00
19023;BME280;35226;48.606;8.858;2023-05-25T07:31:07;96728.94;;;12.18;100.00
19023;BME280;35226;48.606;8.858;2023-05-25T07:33:32;96735.34;;;12.15;100.00
19023;BME280;35226;48.606;8.858;2023-05-25T07:35:58;96738.22;;;12.37;100.00
19023;BME280;35226;48.606;8.858;2023-05-25T07:38:24;96741.53;;;12.45;100.00
19023;BME280;35226;48.606;8.858;2023-05-25T07:40:49;96740.44;;;12.42;100.00
19023;BME280;35226;48.606;8.858;2023-05-25T07:43:16;96749.94;;;12.54;100.00
19023;BME280;35226;48.606;8.858;2023-05-25T07:45:42;96756.84;;;12.62;100.00
19023;BME280;35226;48.606;8.858;2023-05-25T07:48:11;96755.50;;;12.54;100.00
19023;BME280;35226;48.606;8.858;2023-05-25T07:50:36;96752.50;;;12.48;100.00
19023;BME280;35226;48.606;8.858;2023-05-25T07:53:02;96746.63;;;12.46;100.00
19023;BME280;35226;48.606;8.858;2023-05-25T07:55:27;96751.59;;;12.64;100.00
19023;BME280;35226;48.606;8.858;2023-05-25T07:57:53;96753.47;;;12.80;100.00
19023;BME280;35226;48.606;8.858;2023-05-25T08:00:19;96750.19;;;13.07;100.00
19023;BME280;35226;48.606;8.858;2023-05-25T08:02:44;96746.28;;;13.04;100.00
19023;BME280;35226;48.606;8.858;2023-05-25T08:05:10;96742.66;;;12.94;100.00
19023;BME280;35226;48.606;8.858;2023-05-25T08:07:36;96754.09;;;12.96;100.00
19023;BME280;35226;48.606;8.858;2023-05-25T08:10:02;96749.28;;;13.10;100.00
19023;BME280;35226;48.606;8.858;2023-05-25T08:12:28;96756.78;;;12.87;100.00
19023;BME280;35226;48.606;8.858;2023-05-25T08:14:54;96745.84;;;13.06;100.00
19023;BME280;35226;48.606;8.858;2023-05-25T08:17:20;96750.06;;;13.10;100.00
19023;BME280;35226;48.606;8.858;2023-05-25T08:19:46;96757.38;;;13.17;100.00
19023;BME280;35226;48.606;8.858;2023-05-25T08:22:11;96752.69;;;13.26;100.00
19023;BME280;35226;48.606;8.858;2023-05-25T08:24:37;96751.66;;;13.33;100.00
19023;BME280;35226;48.606;8.858;2023-05-25T08:27:02;96748.88;;;13.33;100.00
19023;BME280;35226;48.606;8.858;2023-05-25T08:29:28;96755.22;;;13.55;100.00
19023;BME280;35226;48.606;8.858;2023-05-25T08:31:54;96763.66;;;13.74;100.00
19023;BME280;35226;48.606;8.858;2023-05-25T08:34:19;96767.91;;;13.44;100.00
19023;BME280;35226;48.606;8.858;2023-05-25T08:36:48;96768.97;;;13.81;100.00
19023;BME280;35226;48.606;8.858;2023-05-25T08:39:13;96770.16;;;13.70;100.00
19023;BME280;35226;48.606;8.858;2023-05-25T08:41:42;96762.78;;;13.77;100.00
19023;BME280;35226;48.606;8.858;2023-05-25T08:44:08;96770.31;;;13.98;100.00
19023;BME280;35226;48.606;8.858;2023-05-25T08:46:34;96766.88;;;13.94;100.00
19023;BME280;35226;48.606;8.858;2023-05-25T08:49:07;96772.03;;;14.04;100.00
19023;BME280;35226;48.606;8.858;2023-05-25T08:51:35;96772.84;;;14.14;100.00
19023;BME280;35226;48.606;8.858;2023-05-25T08:54:11;96764.59;;;14.32;100.00
19023;BME280;35226;48.606;8.858;2023-05-25T08:56:52;96759.09;;;14.41;100.00
19023;BME280;35226;48.606;8.858;2023-05-25T09:01:53;96766.00;;;14.68;100.00
19023;BME280;35226;48.606;8.858;2023-05-25T09:04:21;96761.09;;;14.81;100.00
19023;BME280;35226;48.606;8.858;2023-05-25T09:06:47;96758.75;;;14.79;100.00
19023;BME280;35226;48.606;8.858;2023-05-25T09:09:13;96758.63;;;14.92;100.00
19023;BME280;35226;48.606;8.858;2023-05-25T09:11:39;96762.06;;;15.14;100.00
19023;BME280;35226;48.606;8.858;2023-05-25T09:14:06;96760.03;;;14.88;100.00
19023;BME280;35226;48.606;8.858;2023-05-25T09:16:33;96765.75;;;15.02;100.00
19023;BME280;35226;48.606;8.858;2023-05-25T09:19:01;96752.31;;;15.01;100.00
19023;BME280;35226;48.606;8.858;2023-05-25T09:21:26;96758.84;;;15.34;100.00
19023;BME280;35226;48.606;8.858;2023-05-25T09:23:52;96766.44;;;15.61;100.00
19023;BME280;35226;48.606;8.858;2023-05-25T09:26:18;96767.53;;;15.64;100.00
19023;BME280;35226;48.606;8.858;2023-05-25T09:28:47;96762.56;;;15.59;100.00
19023;BME280;35226;48.606;8.858;2023-05-25T09:31:14;96766.09;;;15.68;100.00
19023;BME280;35226;48.606;8.858;2023-05-25T09:33:40;96768.88;;;15.77;100.00
19023;BME280;35226;48.606;8.858;2023-05-25T09:36:06;96762.03;;;16.06;100.00
19023;BME280;35226;48.606;8.858;2023-05-25T09:38:32;96771.16;;;16.15;100.00
19023;BME280;35226;48.606;8.858;2023-05-25T09:40:58;96765.00;;;16.44;100.00
19023;BME280;35226;48.606;8.858;2023-05-25T09:43:24;96769.31;;;16.45;100.00
19023;BME280;35226;48.606;8.858;2023-05-25T09:45:53;96768.31;;;16.67;100.00
19023;BME280;35226;48.606;8.858;2023-05-25T09:48:19;96776.22;;;16.68;100.00
19023;BME280;35226;48.606;8.858;2023-05-25T09:50:45;96771.25;;;16.72;100.00
19023;BME280;35226;48.606;8.858;2023-05-25T09:53:11;96780.41;;;16.96;100.00
19023;BME280;35226;48.606;8.858;2023-05-25T09:55:37;96781.97;;;16.97;100.00
19023;BME280;35226;48.606;8.858;2023-05-25T09:58:02;96776.94;;;17.11;100.00
19023;BME280;35226;48.606;8.858;2023-05-25T10:00:28;96781.13;;;17.30;100.00
19023;BME280;35226;48.606;8.858;2023-05-25T10:02:54;96779.91;;;17.31;100.00
19023;BME280;35226;48.606;8.858;2023-05-25T10:05:20;96776.09;;;17.43;100.00
19023;BME280;35226;48.606;8.858;2023-05-25T10:07:46;96772.38;;;17.61;100.00
19023;BME280;35226;48.606;8.858;2023-05-25T10:10:15;96773.31;;;17.58;100.00
19023;BME280;35226;48.606;8.858;2023-05-25T10:12:44;96770.38;;;17.76;100.00
19023;BME280;35226;48.606;8.858;2023-05-25T10:15:11;96781.69;;;17.58;100.00
19023;BME280;35226;48.606;8.858;2023-05-25T10:17:43;96782.59;;;17.64;100.00
19023;BME280;35226;48.606;8.858;2023-05-25T10:20:10;96783.13;;;17.77;100.00
19023;BME280;35226;48.606;8.858;2023-05-25T10:23:04;96778.00;;;17.75;100.00
19023;BME280;35226;48.606;8.858;2023-05-25T10:25:39;96778.78;;;17.76;100.00
19023;BME280;35226;48.606;8.858;2023-05-25T10:28:26;96773.19;;;17.76;100.00
19023;BME280;35226;48.606;8.858;2023-05-25T10:30:52;96786.78;;;18.12;100.00
19023;BME280;35226;48.606;8.858;2023-05-25T10:33:20;96778.41;;;18.27;100.00
19023;BME280;35226;48.606;8.858;2023-05-25T10:35:45;96786.63;;;18.31;100.00
19023;BME280;35226;48.606;8.858;2023-05-25T10:38:13;96780.81;;;18.34;100.00
19023;BME280;35226;48.606;8.858;2023-05-25T10:40:39;96791.72;;;18.47;100.00
19023;BME280;35226;48.606;8.858;2023-05-25T10:43:05;96789.78;;;18.38;100.00
19023;BME280;35226;48.606;8.858;2023-05-25T10:45:33;96796.56;;;18.17;100.00
19023;BME280;35226;48.606;8.858;2023-05-25T10:47:59;96789.31;;;18.10;100.00
19023;BME280;35226;48.606;8.858;2023-05-25T10:50:25;96794.91;;;18.10;100.00
19023;BME280;35226;48.606;8.858;2023-05-25T10:55:28;96787.75;;;18.24;100.00
19023;BME280;35226;48.606;8.858;2023-05-25T10:58:11;96791.91;;;18.43;100.00
19023;BME280;35226;48.606;8.858;2023-05-25T11:00:37;96791.03;;;18.52;100.00
19023;BME280;35226;48.606;8.858;2023-05-25T11:03:03;96790.06;;;18.55;100.00
19023;BME280;35226;48.606;8.858;2023-05-25T11:05:39;96790.16;;;18.75;100.00
19023;BME280;35226;48.606;8.858;2023-05-25T11:08:07;96791.22;;;18.63;100.00
19023;BME280;35226;48.606;8.858;2023-05-25T11:10:42;96798.09;;;18.62;100.00
19023;BME280;35226;48.606;8.858;2023-05-25T11:16:21;96790.09;;;18.70;100.00
19023;BME280;35226;48.606;8.858;2023-05-25T11:18:50;96794.31;;;18.80;100.00
19023;BME280;35226;48.606;8.858;2023-05-25T11:21:40;96791.56;;;18.85;100.00
19023;BME280;35226;48.606;8.858;2023-05-25T11:24:14;96795.47;;;18.73;100.00
19023;BME280;35226;48.606;8.858;2023-05-25T11:26:55;96785.41;;;18.81;100.00
19023;BME280;35226;48.606;8.858;2023-05-25T11:29:21;96787.91;;;19.14;100.00
19023;BME280;35226;48.606;8.858;2023-05-25T11:31:54;96794.97;;;18.90;100.00
19023;BME280;35226;48.606;8.858;2023-05-25T11:34:23;96789.09;;;19.08;100.00
19023;BME280;35226;48.606;8.858;2023-05-25T11:36:59;96792.69;;;19.08;100.00
19023;BME280;35226;48.606;8.858;2023-05-25T11:39:28;96785.78;;;18.89;100.00
19023;BME280;35226;48.606;8.858;2023-05-25T11:41:55;96784.41;;;18.99;100.00
19023;BME280;35226;48.606;8.858;2023-05-25T11:44:26;96790.06;;;19.05;100.00
19023;BME280;35226;48.606;8.858;2023-05-25T11:46:53;96790.13;;;19.10;100.00
19023;BME280;35226;48.606;8.858;2023-05-25T11:49:23;96788.16;;;18.96;99.88
19023;BME280;35226;48.606;8.858;2023-05-25T11:51:50;96790.56;;;19.03;100.00
19023;BME280;35226;48.606;8.858;2023-05-25T11:54:23;96784.53;;;19.10;100.00
19023;BME280;35226;48.606;8.858;2023-05-25T11:56:49;96790.13;;;19.10;100.00
19023;BME280;35226;48.606;8.858;2023-05-25T11:59:15;96790.56;;;19.03;100.00
19023;BME280;35226;48.606;8.858;2023-05-25T12:01:41;96792.75;;;19.14;100.00
19023;BME280;35226;48.606;8.858;2023-05-25T12:04:08;96781.88;;;19.42;100.00
19023;BME280;35226;48.606;8.858;2023-05-25T12:06:34;96791.25;;;19.53;100.00
19023;BME280;35226;48.606;8.858;2023-05-25T12:09:02;96786.34;;;19.48;100.00
19023;BME280;35226;48.606;8.858;2023-05-25T12:11:33;96790.03;;;19.60;100.00
19023;BME280;35226;48.606;8.858;2023-05-25T12:14:02;96782.88;;;19.79;100.00
19023;BME280;35226;48.606;8.858;2023-05-25T12:16:29;96780.97;;;19.91;100.00
19023;BME280;35226;48.606;8.858;2023-05-25T12:18:55;96781.63;;;20.06;98.17
19023;BME280;35226;48.606;8.858;2023-05-25T12:21:22;96789.94;;;19.95;99.56
19023;BME280;35226;48.606;8.858;2023-05-25T12:23:49;96787.94;;;19.75;94.82
19023;BME280;35226;48.606;8.858;2023-05-25T12:26:16;96774.25;;;19.83;99.84
19023;BME280;35226;48.606;8.858;2023-05-25T12:29:04;96779.31;;;20.05;98.85
19023;BME280;35226;48.606;8.858;2023-05-25T12:31:35;96781.03;;;19.97;92.88
19023;BME280;35226;48.606;8.858;2023-05-25T12:34:21;96783.91;;;19.82;94.80
19023;BME280;35226;48.606;8.858;2023-05-25T12:36:53;96784.34;;;19.75;90.51
19023;BME280;35226;48.606;8.858;2023-05-25T12:41:55;96782.41;;;20.07;96.66
19023;BME280;35226;48.606;8.858;2023-05-25T12:44:22;96784.59;;;20.23;96.57
19023;BME280;35226;48.606;8.858;2023-05-25T12:46:49;96791.16;;;20.40;94.09
19023;BME280;35226;48.606;8.858;2023-05-25T12:49:25;96787.81;;;20.36;87.16
19023;BME280;35226;48.606;8.858;2023-05-25T12:51:52;96786.94;;;20.30;96.10
19023;BME280;35226;48.606;8.858;2023-05-25T12:54:37;96788.00;;;20.32;88.67
19023;BME280;35226;48.606;8.858;2023-05-25T12:57:06;96785.25;;;20.12;85.36
19023;BME280;35226;48.606;8.858;2023-05-25T12:59:33;96778.97;;;20.23;85.69
19023;BME280;35226;48.606;8.858;2023-05-25T13:01:59;96782.34;;;20.27;88.62
19023;BME280;35226;48.606;8.858;2023-05-25T13:04:25;96786.03;;;20.39;87.79
19023;BME280;35226;48.606;8.858;2023-05-25T13:06:52;96789.69;;;20.82;84.12
19023;BME280;35226;48.606;8.858;2023-05-25T13:09:17;96778.28;;;20.96;83.39
19023;BME280;35226;48.606;8.858;2023-05-25T13:11:43;96783.69;;;21.05;82.95
19023;BME280;35226;48.606;8.858;2023-05-25T13:14:08;96775.19;;;20.89;77.16
19023;BME280;35226;48.606;8.858;2023-05-25T13:16:34;96776.47;;;21.25;87.14
19023;BME280;35226;48.606;8.858;2023-05-25T13:19:01;96782.25;;;21.69;92.09
19023;BME280;35226;48.606;8.858;2023-05-25T13:21:26;96775.03;;;21.52;75.96
19023;BME280;35226;48.606;8.858;2023-05-25T13:23:53;96772.28;;;21.63;76.54
19023;BME280;35226;48.606;8.858;2023-05-25T13:26:19;96781.16;;;21.50;76.31
19023;BME280;35226;48.606;8.858;2023-05-25T13:28:45;96777.13;;;21.68;72.20
19023;BME280;35226;48.606;8.858;2023-05-25T13:31:11;96777.72;;;21.89;74.48
19023;BME280;35226;48.606;8.858;2023-05-25T13:33:36;96774.34;;;21.79;71.21
19023;BME280;35226;48.606;8.858;2023-05-25T13:36:02;96766.97;;;21.82;74.28
19023;BME280;35226;48.606;8.858;2023-05-25T13:38:34;96766.72;;;21.96;78.22